Time;durP1;ratioP1;P1;durP2;ratioP2;P2;SDS_P1;SDS_P2;PMS_P1;PMS_P2;Temp;Humidity;BMP_temperature;BMP_pressure;BME280_temperature;BME280_humidity;BME280_pressure;Samples;Min_cycle;Max_cycle;Signal;HPM_P1;HPM_P2
2023/11/21 00:00:12;;;;;;;64.68;7.05;;;6.10;99.90;;;;;;5016335;28;20370;-76
2023/11/21 00:02:40;;;;;;;14.10;4.45;;;6.00;99.90;;;;;;5015440;28;20026;-76
2023/11/21 00:05:09;;;;;;;20.45;4.72;;;5.90;99.90;;;;;;5016465;28;20018;-76
2023/11/21 00:07:35;;;;;;;14.55;4.78;;;5.80;99.90;;;;;;5016825;28;20103;-76
2023/11/21 00:10:01;;;;;;;12.30;4.70;;;5.80;99.90;;;;;;5015305;28;20022;-76
2023/11/21 00:12:29;;;;;;;12.35;4.10;;;5.80;99.90;;;;;;5015827;28;20026;-76
2023/11/21 00:14:55;;;;;;;16.42;4.43;;;5.80;99.90;;;;;;5014869;28;20113;-76
2023/11/21 00:17:20;;;;;;;13.43;4.35;;;5.70;99.90;;;;;;5016002;28;20394;-76
2023/11/21 00:19:46;;;;;;;12.02;4.05;;;5.70;99.90;;;;;;5015611;28;20030;-76
2023/11/21 00:22:11;;;;;;;17.70;4.20;;;5.70;99.90;;;;;;5014222;28;20466;-76
2023/11/21 00:24:37;;;;;;;12.68;3.88;;;5.70;99.90;;;;;;5015848;28;20037;-76
2023/11/21 00:27:02;;;;;;;20.80;4.28;;;5.60;99.90;;;;;;5014610;28;20026;-77
2023/11/21 00:29:28;;;;;;;14.30;4.80;;;5.60;99.90;;;;;;5015874;28;20116;-77
2023/11/21 00:31:54;;;;;;;16.30;5.82;;;5.60;99.90;;;;;;5014261;28;20025;-77
2023/11/21 00:34:20;;;;;;;20.50;5.45;;;5.60;99.90;;;;;;5014442;28;20126;-76
2023/11/21 00:36:45;;;;;;;28.02;4.95;;;5.90;99.90;;;;;;5014086;28;20054;-77
2023/11/21 00:39:11;;;;;;;20.25;4.95;;;5.60;99.90;;;;;;5013992;28;20030;-76
2023/11/21 00:41:37;;;;;;;19.40;4.28;;;5.60;99.90;;;;;;5014088;28;20060;-77
2023/11/21 00:44:03;;;;;;;17.30;4.10;;;5.60;99.90;;;;;;5014365;28;20466;-77
2023/11/21 00:46:29;;;;;;;12.90;4.57;;;5.50;99.90;;;;;;5013564;28;20045;-77
2023/11/21 00:48:55;;;;;;;16.95;4.82;;;5.50;99.90;;;;;;5013895;28;20029;-77
2023/11/21 00:51:21;;;;;;;11.52;4.50;;;5.50;99.90;;;;;;5016038;28;20029;-77
2023/11/21 00:53:47;;;;;;;9.70;3.97;;;5.50;99.90;;;;;;5015133;28;20032;-76
2023/11/21 00:56:14;;;;;;;12.90;3.97;;;5.50;99.90;;;;;;5013706;28;20050;-76
2023/11/21 00:58:46;;;;;;;11.40;4.43;;;5.50;99.90;;;;;;5015054;28;20393;-76
2023/11/21 01:01:11;;;;;;;9.98;4.05;;;5.50;99.90;;;;;;5014941;28;20033;-76
2023/11/21 01:03:37;;;;;;;13.32;3.85;;;5.60;99.90;;;;;;5015162;28;20390;-76
2023/11/21 01:06:04;;;;;;;13.95;4.15;;;5.50;99.90;;;;;;5013682;28;20393;-76
2023/11/21 01:08:31;;;;;;;12.88;3.38;;;5.60;99.90;;;;;;5013638;28;20552;-77
2023/11/21 01:10:56;;;;;;;10.30;2.95;;;5.50;99.90;;;;;;5014932;28;20529;-77
2023/11/21 01:13:22;;;;;;;13.98;3.70;;;5.50;99.90;;;;;;5015185;28;20018;-76
2023/11/21 01:15:47;;;;;;;10.60;3.70;;;5.60;99.90;;;;;;5014908;28;20024;-76
2023/11/21 01:18:13;;;;;;;15.77;3.65;;;5.60;99.90;;;;;;5014087;28;20014;-76
2023/11/21 01:20:39;;;;;;;10.57;3.72;;;5.80;99.90;;;;;;5013417;28;20049;-77
2023/11/21 01:23:05;;;;;;;11.82;3.60;;;5.70;99.90;;;;;;5013896;28;20030;-77
2023/11/21 01:25:31;;;;;;;9.18;3.78;;;5.70;99.90;;;;;;5015221;28;20347;-77
2023/11/21 01:27:56;;;;;;;8.85;3.15;;;5.70;99.90;;;;;;5015869;28;20034;-77
2023/11/21 01:30:22;;;;;;;12.98;3.05;;;5.70;99.90;;;;;;5013446;28;20028;-77
2023/11/21 01:32:47;;;;;;;10.27;3.03;;;5.80;99.90;;;;;;5013063;28;20334;-77
2023/11/21 01:35:13;;;;;;;9.82;2.70;;;5.80;99.90;;;;;;5014930;28;20029;-76
2023/11/21 01:37:38;;;;;;;12.27;4.05;;;5.80;99.90;;;;;;5014694;28;20010;-76
2023/11/21 01:40:09;;;;;;;14.30;3.58;;;5.80;99.90;;;;;;5014552;28;20366;-76
2023/11/21 01:42:34;;;;;;;13.80;3.38;;;5.90;99.90;;;;;;5013648;28;20109;-77
2023/11/21 01:45:04;;;;;;;14.55;3.92;;;6.00;99.90;;;;;;5013231;28;20169;-76
2023/11/21 01:47:31;;;;;;;10.30;3.50;;;6.10;99.90;;;;;;5013376;28;20021;-76
2023/11/21 01:49:56;;;;;;;14.07;2.92;;;6.20;99.90;;;;;;5015007;28;20092;-76
2023/11/21 01:52:22;;;;;;;8.18;2.67;;;6.20;99.90;;;;;;5014376;28;20030;-76
2023/11/21 01:54:48;;;;;;;12.35;4.07;;;6.30;99.90;;;;;;5014872;28;20024;-76
2023/11/21 01:57:15;;;;;;;10.80;3.72;;;6.30;99.90;;;;;;5015078;28;20469;-76
2023/11/21 01:59:42;;;;;;;10.27;2.88;;;6.50;99.90;;;;;;5014783;28;20024;-77
2023/11/21 02:02:09;;;;;;;9.77;2.85;;;6.40;99.90;;;;;;5014783;28;20434;-76
2023/11/21 02:04:36;;;;;;;10.55;2.92;;;6.60;99.90;;;;;;5013272;28;20033;-76
2023/11/21 02:07:05;;;;;;;8.40;3.10;;;6.60;99.90;;;;;;5014766;28;20033;-76
2023/11/21 02:09:32;;;;;;;12.25;3.13;;;6.70;99.90;;;;;;5014034;28;20517;-76
2023/11/21 02:12:01;;;;;;;11.20;3.42;;;6.90;99.90;;;;;;5014409;28;20382;-77
2023/11/21 02:14:27;;;;;;;8.38;3.33;;;6.70;99.90;;;;;;5013382;28;20026;-77
2023/11/21 02:16:54;;;;;;;13.68;3.58;;;6.80;99.90;;;;;;5014467;28;20116;-76
2023/11/21 02:19:29;;;;;;;15.88;3.97;;;6.80;99.90;;;;;;5014258;28;20535;-77
2023/11/21 02:21:59;;;;;;;13.25;3.85;;;7.00;99.90;;;;;;5014462;28;20041;-77
2023/11/21 02:24:25;;;;;;;9.07;3.17;;;6.90;99.90;;;;;;5014565;28;20068;-76
2023/11/21 02:26:51;;;;;;;12.48;3.78;;;7.10;99.90;;;;;;5012966;28;20038;-77
2023/11/21 02:29:18;;;;;;;10.93;3.35;;;7.00;99.90;;;;;;5013808;28;20402;-77
2023/11/21 02:31:47;;;;;;;10.70;3.30;;;7.10;99.90;;;;;;5013919;28;20061;-77
2023/11/21 02:34:17;;;;;;;11.38;3.67;;;7.10;99.90;;;;;;5014600;28;20105;-77
2023/11/21 02:36:44;;;;;;;11.45;3.40;;;7.10;99.90;;;;;;5014257;28;20030;-77
2023/11/21 02:39:13;;;;;;;9.73;2.50;;;7.20;99.90;;;;;;5012914;28;20505;-76
2023/11/21 02:41:39;;;;;;;9.90;2.63;;;7.20;99.90;;;;;;5014578;28;20029;-77
2023/11/21 02:44:06;;;;;;;9.63;3.25;;;7.20;99.90;;;;;;5012750;28;20117;-77
2023/11/21 02:46:33;;;;;;;10.65;3.05;;;7.30;99.90;;;;;;5014235;28;20029;-77
2023/11/21 02:49:00;;;;;;;9.13;2.65;;;7.20;99.90;;;;;;5012965;28;20114;-77
2023/11/21 02:51:25;;;;;;;9.25;3.22;;;7.30;99.90;;;;;;5013771;28;20022;-76
2023/11/21 02:53:52;;;;;;;9.40;2.50;;;7.30;99.90;;;;;;5014380;28;20509;-77
2023/11/21 02:56:17;;;;;;;8.55;3.58;;;7.30;99.90;;;;;;5013170;28;20030;-76
2023/11/21 02:58:44;;;;;;;9.50;3.20;;;7.30;99.90;;;;;;5012993;28;20362;-76
2023/11/21 03:01:10;;;;;;;9.60;3.42;;;7.40;99.90;;;;;;5012641;28;20025;-76
2023/11/21 03:03:39;;;;;;;6.72;2.55;;;7.40;99.90;;;;;;5014207;28;20505;-76
2023/11/21 03:06:06;;;;;;;7.95;3.00;;;7.50;99.90;;;;;;5014201;28;20021;-76
2023/11/21 03:08:35;;;;;;;11.85;3.10;;;7.40;99.90;;;;;;5013334;28;20025;-76
2023/11/21 03:11:02;;;;;;;;;;;7.50;99.90;;;;;;5016490;28;20029;-75
2023/11/21 03:13:28;;;;;;;6.15;2.55;;;7.50;99.90;;;;;;5016354;28;19975;-75
2023/11/21 03:15:54;;;;;;;10.07;2.80;;;7.50;99.90;;;;;;5017478;28;20014;-75
2023/11/21 03:18:21;;;;;;;6.72;2.20;;;7.60;99.90;;;;;;5017675;28;20072;-75
2023/11/21 03:20:47;;;;;;;9.98;3.08;;;7.60;99.90;;;;;;5017406;28;20025;-75
2023/11/21 03:23:12;;;;;;;7.30;2.50;;;7.60;99.90;;;;;;5017267;28;20033;-75
2023/11/21 03:25:38;;;;;;;9.35;2.72;;;7.60;99.90;;;;;;5017449;28;20030;-75
2023/11/21 03:28:04;;;;;;;7.95;2.55;;;7.60;99.90;;;;;;5016754;28;20113;-75
2023/11/21 03:30:30;;;;;;;10.02;3.03;;;7.60;99.90;;;;;;5017249;28;20021;-75
2023/11/21 03:32:55;;;;;;;9.95;2.70;;;7.60;99.90;;;;;;5016090;28;20172;-76
2023/11/21 03:35:21;;;;;;;10.38;2.45;;;;;;;;;;5016173;28;20026;-75
2023/11/21 03:37:47;;;;;;;9.75;2.47;;;7.70;99.90;;;;;;5015722;28;20497;-75
2023/11/21 03:40:13;;;;;;;9.43;3.15;;;7.70;99.90;;;;;;5016915;28;20033;-75
2023/11/21 03:42:39;;;;;;;11.90;3.00;;;7.60;99.90;;;;;;5017242;28;20022;-75
2023/11/21 03:45:09;;;;;;;10.35;2.47;;;7.60;99.90;;;;;;5017447;28;20470;-75
2023/11/21 03:47:34;;;;;;;11.68;2.88;;;8.40;99.90;;;;;;5016987;28;20072;-75
2023/11/21 03:50:00;;;;;;;6.80;2.72;;;7.60;99.90;;;;;;5016782;28;20029;-75
2023/11/21 03:52:28;;;;;;;9.45;2.88;;;7.60;99.90;;;;;;5015639;28;20444;-75
2023/11/21 03:54:54;;;;;;;8.43;3.20;;;7.60;99.90;;;;;;5017642;28;20077;-75
2023/11/21 03:57:23;;;;;;;9.43;2.95;;;7.60;99.90;;;;;;5016564;28;20033;-75
2023/11/21 03:59:51;;;;;;;13.52;2.83;;;7.60;99.90;;;;;;5016567;28;20025;-76
2023/11/21 04:02:17;;;;;;;13.27;3.15;;;7.60;99.90;;;;;;5015027;28;20103;-76
2023/11/21 04:04:42;;;;;;;11.63;3.63;;;7.60;99.90;;;;;;5016304;28;20022;-75
2023/11/21 04:07:08;;;;;;;7.60;2.92;;;7.60;99.90;;;;;;5016483;28;20389;-75
2023/11/21 04:09:33;;;;;;;8.90;3.42;;;7.70;99.90;;;;;;5017240;28;20370;-75
2023/11/21 04:11:59;;;;;;;11.90;3.17;;;7.70;99.90;;;;;;5014886;28;20504;-75
2023/11/21 04:14:24;;;;;;;8.15;3.30;;;7.70;99.90;;;;;;5016498;28;20030;-75
2023/11/21 04:16:50;;;;;;;13.63;3.08;;;7.70;99.90;;;;;;5016175;28;20029;-75
2023/11/21 04:19:16;;;;;;;10.40;3.15;;;7.70;99.90;;;;;;5016185;28;20536;-75
2023/11/21 04:21:42;;;;;;;13.18;3.55;;;7.70;99.90;;;;;;5014474;28;20026;-76
2023/11/21 04:24:08;;;;;;;9.60;3.25;;;7.80;99.90;;;;;;5016708;28;20029;-75
2023/11/21 04:26:34;;;;;;;13.75;3.65;;;8.00;99.90;;;;;;5016714;28;20026;-75
2023/11/21 04:28:59;;;;;;;10.57;3.55;;;7.80;99.90;;;;;;5015804;28;20032;-75
2023/11/21 04:31:25;;;;;;;7.75;3.15;;;7.90;99.90;;;;;;5015830;28;20097;-75
2023/11/21 04:33:50;;;;;;;8.80;3.33;;;7.90;99.90;;;;;;5015964;28;20072;-75
2023/11/21 04:36:16;;;;;;;8.00;3.05;;;7.90;99.90;;;;;;5015806;28;20022;-76
2023/11/21 04:38:41;;;;;;;10.38;3.17;;;7.90;99.90;;;;;;5015817;28;20076;-75
2023/11/21 04:41:08;;;;;;;11.13;2.67;;;7.90;99.90;;;;;;5015962;28;20034;-76
2023/11/21 04:43:33;;;;;;;10.60;3.55;;;7.90;99.90;;;;;;5014960;28;20057;-76
2023/11/21 04:46:00;;;;;;;7.50;2.70;;;8.00;99.90;;;;;;5016095;28;20041;-75
2023/11/21 04:48:25;;;;;;;9.60;3.80;;;8.00;99.90;;;;;;5016444;28;20022;-75
2023/11/21 04:50:51;;;;;;;14.85;4.30;;;8.00;99.90;;;;;;5014337;28;20036;-76
2023/11/21 04:53:17;;;;;;;19.40;4.00;;;8.10;99.90;;;;;;5015542;28;20109;-75
2023/11/21 04:55:43;;;;;;;9.30;3.33;;;8.10;99.90;;;;;;5014652;28;20512;-75
2023/11/21 04:58:09;;;;;;;12.43;2.78;;;8.20;99.90;;;;;;5015858;28;20018;-76
2023/11/21 05:00:38;;;;;;;8.98;2.88;;;8.20;99.90;;;;;;5015480;28;20470;-76
2023/11/21 05:03:04;;;;;;;7.85;2.85;;;8.10;99.90;;;;;;5015897;28;20464;-75
2023/11/21 05:05:30;;;;;;;8.80;2.90;;;8.10;99.90;;;;;;5016004;28;20026;-76
2023/11/21 05:07:56;;;;;;;8.50;2.67;;;8.20;99.90;;;;;;5015350;28;20083;-76
2023/11/21 05:10:22;;;;;;;10.93;3.05;;;8.20;99.90;;;;;;5015693;28;20030;-75
2023/11/21 05:12:50;;;;;;;8.23;2.97;;;8.20;99.90;;;;;;5014877;28;20026;-75
2023/11/21 05:15:17;;;;;;;7.07;2.92;;;8.20;99.90;;;;;;5015502;28;20021;-75
2023/11/21 05:17:44;;;;;;;11.55;2.65;;;8.20;99.90;;;;;;5015336;28;20029;-76
2023/11/21 05:20:14;;;;;;;11.57;2.78;;;8.20;99.90;;;;;;5013535;28;20028;-75
2023/11/21 05:22:41;;;;;;;8.35;2.92;;;8.20;99.90;;;;;;5013804;28;20033;-75
2023/11/21 05:25:08;;;;;;;13.18;2.85;;;8.20;99.90;;;;;;5013811;28;20548;-75
2023/11/21 05:27:34;;;;;;;8.52;3.35;;;8.20;99.90;;;;;;5015296;28;20036;-76
2023/11/21 05:30:11;;;;;;;8.77;3.30;;;8.20;99.90;;;;;;5015238;28;20087;-76
2023/11/21 05:32:37;;;;;;;14.82;3.03;;;8.20;99.90;;;;;;5014093;28;20030;-75
2023/11/21 05:35:03;;;;;;;11.27;3.08;;;8.20;99.90;;;;;;5014992;28;20018;-75
2023/11/21 05:37:29;;;;;;;8.70;2.33;;;8.20;99.90;;;;;;5015381;28;20037;-75
2023/11/21 05:39:56;;;;;;;16.98;3.05;;;8.30;99.90;;;;;;5013978;28;20030;-75
2023/11/21 05:42:23;;;;;;;14.30;3.38;;;8.30;99.90;;;;;;5015077;28;20022;-75
2023/11/21 05:44:49;;;;;;;5.90;2.50;;;8.30;99.90;;;;;;5014224;28;20032;-75
2023/11/21 05:47:15;;;;;;;6.75;2.42;;;8.30;99.90;;;;;;5013746;28;20037;-76
2023/11/21 05:49:40;;;;;;;12.50;3.58;;;8.30;99.90;;;;;;5014965;28;20026;-75
2023/11/21 05:52:06;;;;;;;9.95;2.80;;;8.30;99.90;;;;;;5012933;28;20029;-76
2023/11/21 05:54:32;;;;;;;12.10;3.67;;;8.30;99.90;;;;;;5015007;28;20026;-76
2023/11/21 05:56:57;;;;;;;7.40;2.97;;;8.30;99.90;;;;;;5014965;28;20026;-76
2023/11/21 05:59:23;;;;;;;10.35;2.80;;;8.40;99.90;;;;;;5014566;28;20029;-76
2023/11/21 06:01:49;;;;;;;6.50;2.83;;;8.40;99.90;;;;;;5013566;28;20018;-76
2023/11/21 06:04:15;;;;;;;8.05;2.22;;;8.40;99.90;;;;;;5014736;28;20037;-76
2023/11/21 06:06:40;;;;;;;9.95;2.65;;;8.40;99.90;;;;;;5014717;28;20026;-76
2023/11/21 06:09:08;;;;;;;10.40;2.80;;;8.50;99.90;;;;;;5014567;28;20029;-76
2023/11/21 06:11:34;;;;;;;9.95;2.92;;;8.40;99.90;;;;;;5012977;28;20026;-76
2023/11/21 06:14:00;;;;;;;7.63;2.80;;;8.50;99.90;;;;;;5013324;28;20067;-75
2023/11/21 06:16:25;;;;;;;13.55;4.35;;;8.50;99.90;;;;;;5014265;28;20014;-75
2023/11/21 06:18:51;;;;;;;13.15;4.75;;;8.60;99.90;;;;;;5014094;28;20052;-75
2023/11/21 06:21:17;;;;;;;18.33;6.25;;;8.60;99.90;;;;;;5014141;28;20026;-75
2023/11/21 06:23:43;;;;;;;22.45;5.75;;;8.60;99.90;;;;;;5013037;28;20026;-75
2023/11/21 06:26:09;;;;;;;13.38;5.65;;;8.60;99.90;;;;;;5013622;28;20034;-75
2023/11/21 06:28:36;;;;;;;13.38;4.07;;;8.60;99.90;;;;;;5012779;28;20044;-75
2023/11/21 06:31:05;;;;;;;11.23;3.47;;;8.60;99.90;;;;;;5014157;28;20050;-75
2023/11/21 06:33:34;;;;;;;15.45;3.63;;;8.60;99.90;;;;;;5013091;28;20076;-76
2023/11/21 06:36:03;;;;;;;16.92;3.72;;;8.60;99.90;;;;;;5014587;28;20073;-76
2023/11/21 06:38:32;;;;;;;12.60;3.95;;;8.60;99.90;;;;;;5014561;28;20033;-75
2023/11/21 06:40:58;;;;;;;11.18;2.95;;;8.50;99.90;;;;;;5014390;28;20033;-75
2023/11/21 06:43:24;;;;;;;10.38;3.40;;;8.60;99.90;;;;;;5014300;28;20524;-75
2023/11/21 06:45:49;;;;;;;14.75;3.55;;;8.50;99.90;;;;;;5017513;28;20022;-75
2023/11/21 06:48:15;;;;;;;9.65;3.67;;;8.50;99.90;;;;;;5018010;28;20030;-75
2023/11/21 06:50:41;;;;;;;7.97;3.20;;;8.60;99.90;;;;;;5018035;28;20081;-75
2023/11/21 06:53:08;;;;;;;9.20;3.40;;;8.60;99.90;;;;;;5017599;28;20059;-75
2023/11/21 06:55:34;;;;;;;14.93;3.45;;;8.60;99.90;;;;;;5017956;28;20132;-75
2023/11/21 06:58:02;;;;;;;11.02;3.42;;;8.70;99.90;;;;;;5018145;28;20045;-75
2023/11/21 07:00:29;;;;;;;11.35;4.40;;;8.80;99.90;;;;;;5016807;28;20469;-75
2023/11/21 07:02:55;;;;;;;13.18;3.92;;;8.80;99.90;;;;;;5018117;28;20065;-75
2023/11/21 07:05:21;;;;;;;14.80;4.10;;;8.90;99.90;;;;;;5017791;28;20440;-75
2023/11/21 07:07:48;;;;;;;14.50;3.38;;;8.90;99.90;;;;;;5018189;28;20496;-75
2023/11/21 07:10:14;;;;;;;11.75;3.67;;;9.00;99.90;;;;;;5017848;28;20026;-75
2023/11/21 07:12:40;;;;;;;7.32;2.80;;;9.00;99.90;;;;;;5017621;28;20481;-75
2023/11/21 07:15:09;;;;;;;12.65;3.72;;;9.00;99.90;;;;;;5016480;28;20022;-75
2023/11/21 07:17:37;;;;;;;;;;;9.10;99.90;;;;;;5018002;28;20101;-75
2023/11/21 07:20:03;;;;;;;9.48;3.45;;;9.70;99.90;;;;;;5017775;28;19952;-75
2023/11/21 07:22:29;;;;;;;8.18;3.30;;;9.10;99.90;;;;;;5016165;28;20116;-75
2023/11/21 07:24:58;;;;;;;12.15;3.83;;;9.60;99.90;;;;;;5017495;28;20437;-75
2023/11/21 07:27:24;;;;;;;9.85;3.60;;;9.20;99.90;;;;;;5017410;28;20076;-75
2023/11/21 07:29:49;;;;;;;8.73;3.28;;;9.20;99.90;;;;;;5016794;28;20481;-75
2023/11/21 07:32:15;;;;;;;12.32;3.15;;;9.60;99.90;;;;;;5016960;28;20124;-75
2023/11/21 07:34:41;;;;;;;10.15;3.53;;;9.30;99.90;;;;;;5016972;28;20075;-75
2023/11/21 07:37:08;;;;;;;16.15;3.13;;;9.20;99.90;;;;;;5017068;28;20104;-75
2023/11/21 07:39:35;;;;;;;9.77;3.13;;;9.30;99.90;;;;;;5016973;28;20030;-75
2023/11/21 07:42:02;;;;;;;11.45;3.22;;;9.40;99.90;;;;;;5017754;28;20167;-75
2023/11/21 07:44:28;;;;;;;6.35;1.77;;;9.40;99.90;;;;;;5016583;28;20033;-75
2023/11/21 07:46:57;;;;;;;9.70;2.80;;;9.50;99.90;;;;;;5017243;28;20026;-75
2023/11/21 07:49:23;;;;;;;10.05;2.85;;;9.50;99.90;;;;;;5017173;28;20045;-75
2023/11/21 07:51:48;;;;;;;5.97;1.77;;;9.50;99.90;;;;;;5017573;28;20026;-75
2023/11/21 07:54:15;;;;;;;6.30;1.70;;;9.60;99.90;;;;;;5016745;28;20100;-75
2023/11/21 07:56:41;;;;;;;5.68;1.45;;;9.70;99.90;;;;;;5015814;28;20021;-75
2023/11/21 07:59:06;;;;;;;8.02;1.67;;;9.70;99.90;;;;;;5017073;28;20424;-75
2023/11/21 08:01:32;;;;;;;8.90;1.45;;;9.70;99.90;;;;;;5015657;28;20072;-75
2023/11/21 08:04:01;;;;;;;4.60;1.45;;;9.70;99.90;;;;;;5016789;28;20049;-75
2023/11/21 08:06:28;;;;;;;3.55;1.02;;;9.80;99.90;;;;;;5015555;28;20037;-75
2023/11/21 08:08:53;;;;;;;5.40;1.30;;;9.80;99.90;;;;;;5017175;28;20482;-75
2023/11/21 08:11:19;;;;;;;4.22;1.02;;;9.90;99.90;;;;;;5015356;28;20018;-75
2023/11/21 08:13:47;;;;;;;4.22;1.10;;;9.90;99.90;;;;;;5015441;28;20038;-75
2023/11/21 08:16:12;;;;;;;5.57;1.52;;;9.90;99.90;;;;;;5015285;28;20037;-75
2023/11/21 08:18:40;;;;;;;4.28;1.02;;;10.00;99.90;;;;;;5016490;28;20022;-75
2023/11/21 08:21:05;;;;;;;4.90;0.90;;;10.20;99.90;;;;;;5016487;28;20013;-75
2023/11/21 08:23:31;;;;;;;5.50;1.08;;;10.00;99.90;;;;;;5016418;28;20503;-75
2023/11/21 08:25:56;;;;;;;5.32;0.70;;;10.00;99.90;;;;;;5016479;28;20054;-75
2023/11/21 08:28:25;;;;;;;8.38;1.40;;;10.00;99.90;;;;;;5015000;28;20593;-75
2023/11/21 08:30:52;;;;;;;3.70;0.82;;;10.00;99.90;;;;;;5016387;28;20101;-75
2023/11/21 08:33:17;;;;;;;5.10;1.23;;;10.10;99.90;;;;;;5014919;28;20032;-75
2023/11/21 08:35:43;;;;;;;3.70;1.20;;;10.10;99.90;;;;;;5016186;28;20469;-75
2023/11/21 08:38:10;;;;;;;4.45;1.10;;;10.10;99.90;;;;;;5016094;28;20037;-75
2023/11/21 08:40:35;;;;;;;6.75;1.45;;;10.10;99.90;;;;;;5016020;28;20014;-75
2023/11/21 08:43:04;;;;;;;5.28;2.08;;;10.10;99.90;;;;;;5016017;28;20026;-75
2023/11/21 08:45:30;;;;;;;5.78;1.67;;;10.10;99.90;;;;;;5016247;28;20097;-75
2023/11/21 08:47:55;;;;;;;9.32;1.83;;;10.20;99.90;;;;;;5014808;28;20053;-75
2023/11/21 08:50:21;;;;;;;5.85;1.77;;;10.30;99.90;;;;;;5015487;28;20014;-76
2023/11/21 08:52:51;;;;;;;3.58;1.20;;;10.30;99.90;;;;;;5014238;28;20064;-76
2023/11/21 08:55:16;;;;;;;5.63;1.90;;;10.40;99.90;;;;;;5014859;28;20018;-75
2023/11/21 08:57:44;;;;;;;5.15;1.77;;;10.50;99.90;;;;;;5013526;28;20434;-76
2023/11/21 09:00:11;;;;;;;6.28;2.10;;;10.50;99.90;;;;;;5014937;28;20108;-75
2023/11/21 09:02:41;;;;;;;6.07;1.77;;;10.60;99.90;;;;;;5014792;28;20080;-75
2023/11/21 09:05:09;;;;;;;3.95;1.38;;;10.60;99.90;;;;;;5015686;28;20029;-75
2023/11/21 09:07:34;;;;;;;4.35;1.55;;;10.70;99.90;;;;;;5014568;28;20094;-75
2023/11/21 09:10:00;;;;;;;6.97;1.73;;;11.00;99.90;;;;;;5013623;28;20121;-75
2023/11/21 09:12:26;;;;;;;8.35;2.03;;;10.80;99.90;;;;;;5014915;28;20029;-75
2023/11/21 09:14:51;;;;;;;6.10;2.30;;;10.80;99.90;;;;;;5015059;28;20025;-76
2023/11/21 09:17:17;;;;;;;7.28;2.78;;;10.80;99.90;;;;;;5015692;28;20111;-75
2023/11/21 09:19:49;;;;;;;6.15;2.60;;;10.70;99.90;;;;;;5014891;28;20100;-74
2023/11/21 09:22:16;;;;;;;7.40;2.90;;;10.70;99.90;;;;;;5015743;28;20022;-75
2023/11/21 09:24:42;;;;;;;6.10;2.20;;;10.70;99.90;;;;;;5014803;28;20025;-75
2023/11/21 09:27:09;;;;;;;7.07;2.33;;;10.60;99.90;;;;;;5013665;28;20040;-75
2023/11/21 09:29:35;;;;;;;3.97;1.88;;;10.60;99.90;;;;;;5014910;28;20073;-75
2023/11/21 09:32:01;;;;;;;6.47;2.10;;;10.60;99.90;;;;;;5013363;28;20029;-74
2023/11/21 09:34:26;;;;;;;6.80;2.33;;;10.50;99.90;;;;;;5014814;28;20079;-74
2023/11/21 09:36:53;;;;;;;10.38;2.40;;;10.50;99.90;;;;;;5013698;28;20116;-75
2023/11/21 09:39:18;;;;;;;7.32;2.35;;;10.50;99.90;;;;;;5014320;28;20029;-74
2023/11/21 09:42:11;;;;;;;6.35;2.85;;;10.50;99.90;;;;;;5013367;28;20072;-75
2023/11/21 09:44:55;;;;;;;7.57;2.13;;;10.40;99.90;;;;;;5015224;28;20026;-76
2023/11/21 09:47:21;;;;;;;10.35;3.55;;;10.40;99.90;;;;;;5013132;28;20022;-75
2023/11/21 09:49:49;;;;;;;5.93;2.67;;;10.40;99.90;;;;;;5012913;28;20413;-76
2023/11/21 09:52:38;;;;;;;5.68;1.95;;;10.40;99.90;;;;;;5014257;28;20033;-76
2023/11/21 09:55:05;;;;;;;5.85;2.22;;;10.40;99.90;;;;;;5014586;28;20029;-75
2023/11/21 09:57:31;;;;;;;5.07;1.70;;;10.50;99.90;;;;;;5014355;28;20014;-75
2023/11/21 10:00:00;;;;;;;5.13;2.05;;;10.50;99.90;;;;;;5013891;28;20176;-74
2023/11/21 10:02:28;;;;;;;;;;;10.50;99.90;;;;;;5015290;28;20025;-74
2023/11/21 10:04:54;;;;;;;7.00;1.75;;;10.60;99.90;;;;;;5014403;28;19906;-74
2023/11/21 10:07:20;;;;;;;4.80;1.25;;;10.70;99.90;;;;;;5012893;28;20111;-75
2023/11/21 10:09:48;;;;;;;5.53;1.30;;;10.60;99.90;;;;;;5014105;28;20469;-75
2023/11/21 10:12:18;;;;;;;3.20;1.40;;;10.70;99.90;;;;;;5014299;28;20065;-74
2023/11/21 10:14:48;;;;;;;5.50;2.00;;;10.70;99.90;;;;;;5012925;28;20394;-75
2023/11/21 10:17:21;;;;;;;5.50;1.40;;;10.70;99.90;;;;;;5012803;28;20026;-75
2023/11/21 10:19:47;;;;;;;5.82;1.63;;;10.70;99.90;;;;;;5014850;28;20045;-75
2023/11/21 10:22:17;;;;;;;3.88;1.30;;;10.60;99.90;;;;;;5018872;28;20477;-75
2023/11/21 10:24:43;;;;;;;4.88;2.08;;;10.60;99.90;;;;;;5018548;28;20481;-75
2023/11/21 10:27:09;;;;;;;5.45;1.70;;;10.50;99.90;;;;;;5018845;28;20021;-75
2023/11/21 10:29:35;;;;;;;2.65;1.17;;;10.50;99.90;;;;;;5017982;28;20076;-74
2023/11/21 10:32:03;;;;;;;4.57;1.30;;;10.50;99.90;;;;;;5017317;28;20133;-75
2023/11/21 10:34:29;;;;;;;4.50;0.85;;;10.50;99.90;;;;;;5017015;28;20370;-75
2023/11/21 10:36:57;;;;;;;2.55;1.05;;;11.10;99.90;;;;;;5017976;28;20013;-75
2023/11/21 10:39:27;;;;;;;4.35;0.95;;;10.40;99.90;;;;;;5017770;28;20073;-75
2023/11/21 10:41:54;;;;;;;6.05;1.20;;;10.40;99.90;;;;;;5016558;28;20025;-75
2023/11/21 10:44:20;;;;;;;3.28;1.20;;;10.40;99.90;;;;;;5017713;28;20030;-75
2023/11/21 10:46:56;;;;;;;3.92;0.73;;;10.40;99.90;;;;;;5017672;28;20446;-75
2023/11/21 10:49:26;;;;;;;4.22;0.82;;;10.40;99.90;;;;;;5017718;28;20033;-75
2023/11/21 10:51:55;;;;;;;3.65;0.85;;;10.40;99.90;;;;;;5017722;28;20548;-75
2023/11/21 10:54:22;;;;;;;8.15;1.88;;;10.40;99.90;;;;;;5018059;28;20596;-75
2023/11/21 10:56:51;;;;;;;4.53;1.75;;;10.30;99.90;;;;;;5017641;28;20473;-75
2023/11/21 10:59:17;;;;;;;7.70;1.73;;;10.30;99.90;;;;;;5017801;28;20396;-74
2023/11/21 11:01:45;;;;;;;5.68;1.58;;;10.30;99.90;;;;;;5017502;28;20033;-74
2023/11/21 11:04:14;;;;;;;5.63;1.58;;;10.30;99.90;;;;;;5017360;28;20108;-74
2023/11/21 11:06:45;;;;;;;4.60;1.38;;;10.30;99.90;;;;;;5016577;28;20105;-74
2023/11/21 11:09:13;;;;;;;6.50;1.75;;;10.30;99.90;;;;;;5017670;28;20029;-74
2023/11/21 11:11:41;;;;;;;3.42;1.23;;;10.30;99.90;;;;;;5018196;28;20029;-74
2023/11/21 11:14:12;;;;;;;9.20;1.75;;;10.30;99.90;;;;;;5016362;28;20506;-74
2023/11/21 11:16:41;;;;;;;6.25;1.77;;;10.30;99.90;;;;;;5016268;28;20029;-74
2023/11/21 11:19:07;;;;;;;7.88;2.08;;;10.30;99.90;;;;;;5017741;28;20018;-74
2023/11/21 11:21:58;;;;;;;5.88;1.77;;;10.30;99.90;;;;;;5016407;28;20084;-74
2023/11/21 11:25:15;;;;;;;6.28;1.92;;;10.30;99.90;;;;;;5016029;28;20540;-74
2023/11/21 11:28:03;;;;;;;6.93;1.85;;;10.30;99.90;;;;;;4984690;28;20386;-74
2023/11/21 11:30:42;;;;;;;6.88;1.92;;;10.30;99.90;;;;;;5015430;28;20030;-74
2023/11/21 11:33:25;;;;;;;9.20;2.80;;;10.30;99.90;;;;;;5015786;28;20073;-74
2023/11/21 11:36:25;;;;;;;10.38;2.58;;;10.30;99.90;;;;;;5017805;28;20022;-74
2023/11/21 11:38:52;;;;;;;10.13;3.35;;;10.20;99.90;;;;;;5016623;28;20080;-74
2023/11/21 11:41:30;;;;;;;6.22;2.33;;;10.20;99.90;;;;;;5016826;28;20525;-74
2023/11/21 11:43:56;;;;;;;10.18;3.90;;;10.30;99.90;;;;;;5016001;28;20382;-74
2023/11/21 11:46:45;;;;;;;10.45;3.33;;;10.20;99.90;;;;;;5016960;28;20022;-74
2023/11/21 11:49:11;;;;;;;9.98;2.92;;;10.20;99.90;;;;;;5016722;28;20022;-74
2023/11/21 11:51:37;;;;;;;11.13;3.10;;;10.20;99.90;;;;;;5016440;28;20509;-74
2023/11/21 11:54:03;;;;;;;9.25;3.38;;;10.20;99.90;;;;;;5016873;28;20026;-75
2023/11/21 11:56:33;;;;;;;12.55;4.00;;;10.30;99.90;;;;;;5015111;28;20109;-75
2023/11/21 11:59:02;;;;;;;12.73;3.60;;;10.40;99.90;;;;;;5014786;28;20020;-74
2023/11/21 12:01:29;;;;;;;9.27;3.47;;;10.40;99.90;;;;;;5016075;28;20028;-75
2023/11/21 12:04:14;;;;;;;11.65;2.97;;;10.50;99.90;;;;;;5016385;28;20105;-75
2023/11/21 12:06:41;;;;;;;11.63;4.22;;;10.60;99.90;;;;;;5015142;28;20122;-75
2023/11/21 12:09:07;;;;;;;12.52;3.67;;;10.60;99.90;;;;;;5016454;28;20029;-75
2023/11/21 12:11:35;;;;;;;10.48;3.72;;;10.60;99.90;;;;;;5015329;28;20022;-75
2023/11/21 12:14:03;;;;;;;14.60;4.40;;;10.50;99.90;;;;;;5016279;28;20096;-75
2023/11/21 12:16:28;;;;;;;12.02;4.13;;;10.50;99.90;;;;;;5016653;28;20068;-75
2023/11/21 12:18:54;;;;;;;9.07;2.47;;;10.50;99.90;;;;;;5016135;28;20378;-75
2023/11/21 12:21:21;;;;;;;9.95;2.88;;;10.50;99.90;;;;;;5014501;28;20048;-75
2023/11/21 12:23:47;;;;;;;9.57;3.70;;;10.50;99.90;;;;;;5015885;28;20021;-75
2023/11/21 12:26:13;;;;;;;9.27;2.78;;;10.50;99.90;;;;;;5014598;28;20057;-75
2023/11/21 12:28:39;;;;;;;9.48;3.28;;;10.50;99.90;;;;;;5015823;28;20026;-75
2023/11/21 12:31:06;;;;;;;9.85;4.22;;;10.50;99.90;;;;;;5015751;28;20153;-75
2023/11/21 12:33:35;;;;;;;8.95;3.42;;;10.50;99.90;;;;;;5015735;28;20437;-75
2023/11/21 12:36:01;;;;;;;8.30;2.97;;;10.40;99.90;;;;;;5014247;28;20017;-75
2023/11/21 12:38:35;;;;;;;16.27;4.65;;;11.00;99.90;;;;;;5015245;28;20069;-75
2023/11/21 12:41:00;;;;;;;8.88;3.90;;;10.40;99.90;;;;;;5015386;28;20018;-75
2023/11/21 12:43:26;;;;;;;11.05;4.50;;;10.30;99.90;;;;;;5013303;28;20025;-75
2023/11/21 12:46:05;;;;;;;11.73;4.18;;;10.40;99.90;;;;;;5015240;28;20062;-75
2023/11/21 12:48:32;;;;;;;13.50;5.05;;;10.40;99.90;;;;;;5013962;28;20552;-75
2023/11/21 12:51:00;;;;;;;11.40;4.25;;;10.50;99.90;;;;;;5014046;28;20077;-75